KEIR

Eugene Island

Eugene Island, Louisiana, USA
METAR KEIR 231055Z AUTO 03019KT 10SM CLR 14/02 A3015 RMK A01
Observed Flight Rules
Jan-23 @ 10:55 UTC (an hour ago) Visual Flight Rules
Wind Visibility Clouds
30° at 19 knots 10 miles
  • Clear skies
Temperatures Readings
Current 14°C / 57°F
Dewpoint 2°C / 36°F
Humidity 44%
Altimeter 30.15" Hg
Pressure 1021 hPa
Elevation 28
METAR KEIR 231055Z AUTO 03019KT 10SM CLR 14/02 A3015 RMK A01
Observed Flight Rules
Jan-23 @ 10:55 UTC
(an hour ago)
VFR
Wind Visibility
30° at 19 knots 10 miles
Clouds
  • Clear skies
Temperature Dewpoint
14°C / 57°F 2°C / 36°F
Humidity Altimeter Pressure
44% 30.15" Hg 1021 hPa